sensor_id;sensor_type;location;lat;lon;timestamp;P1;durP1;ratioP1;P2;durP2;ratioP2
3541;SDS011;1785;47.388;8.538;2023-06-22T00:01:15;20.10;;;9.60;;
3541;SDS011;1785;47.388;8.538;2023-06-22T00:03:41;11.50;;;8.20;;
3541;SDS011;1785;47.388;8.538;2023-06-22T00:06:07;10.73;;;8.03;;
3541;SDS011;1785;47.388;8.538;2023-06-22T00:08:33;13.10;;;8.33;;
3541;SDS011;1785;47.388;8.538;2023-06-22T00:11:00;12.07;;;7.90;;
3541;SDS011;1785;47.388;8.538;2023-06-22T00:13:26;11.83;;;9.07;;
3541;SDS011;1785;47.388;8.538;2023-06-22T00:15:52;13.73;;;8.87;;
3541;SDS011;1785;47.388;8.538;2023-06-22T00:18:18;12.07;;;8.40;;
3541;SDS011;1785;47.388;8.538;2023-06-22T00:20:45;15.70;;;9.07;;
3541;SDS011;1785;47.388;8.538;2023-06-22T00:23:11;14.83;;;8.47;;
3541;SDS011;1785;47.388;8.538;2023-06-22T00:25:40;10.47;;;7.90;;
3541;SDS011;1785;47.388;8.538;2023-06-22T00:28:07;11.43;;;8.63;;
3541;SDS011;1785;47.388;8.538;2023-06-22T00:30:34;12.03;;;7.77;;
3541;SDS011;1785;47.388;8.538;2023-06-22T00:33:01;15.30;;;7.53;;
3541;SDS011;1785;47.388;8.538;2023-06-22T00:35:27;13.53;;;7.50;;
3541;SDS011;1785;47.388;8.538;2023-06-22T00:37:54;14.37;;;7.60;;
3541;SDS011;1785;47.388;8.538;2023-06-22T00:40:33;11.40;;;7.50;;
3541;SDS011;1785;47.388;8.538;2023-06-22T00:43:16;7.87;;;6.40;;
3541;SDS011;1785;47.388;8.538;2023-06-22T00:45:42;10.90;;;9.33;;
3541;SDS011;1785;47.388;8.538;2023-06-22T00:51:09;13.50;;;8.10;;
3541;SDS011;1785;47.388;8.538;2023-06-22T00:53:36;9.97;;;7.90;;
3541;SDS011;1785;47.388;8.538;2023-06-22T00:56:04;12.07;;;8.07;;
3541;SDS011;1785;47.388;8.538;2023-06-22T00:58:34;12.00;;;7.80;;
3541;SDS011;1785;47.388;8.538;2023-06-22T01:01:01;12.97;;;8.07;;
3541;SDS011;1785;47.388;8.538;2023-06-22T01:03:27;13.37;;;8.90;;
3541;SDS011;1785;47.388;8.538;2023-06-22T01:05:53;13.20;;;8.17;;
3541;SDS011;1785;47.388;8.538;2023-06-22T01:08:29;15.03;;;8.07;;
3541;SDS011;1785;47.388;8.538;2023-06-22T01:11:00;12.93;;;8.27;;
3541;SDS011;1785;47.388;8.538;2023-06-22T01:13:32;13.47;;;8.10;;
3541;SDS011;1785;47.388;8.538;2023-06-22T01:16:05;9.33;;;8.17;;
3541;SDS011;1785;47.388;8.538;2023-06-22T01:18:36;9.93;;;7.13;;
3541;SDS011;1785;47.388;8.538;2023-06-22T01:21:06;10.90;;;8.63;;
3541;SDS011;1785;47.388;8.538;2023-06-22T01:23:37;16.57;;;8.17;;
3541;SDS011;1785;47.388;8.538;2023-06-22T01:26:17;13.17;;;7.80;;
3541;SDS011;1785;47.388;8.538;2023-06-22T01:28:49;12.07;;;7.90;;
3541;SDS011;1785;47.388;8.538;2023-06-22T01:31:18;9.93;;;7.77;;
3541;SDS011;1785;47.388;8.538;2023-06-22T01:33:50;8.80;;;7.30;;
3541;SDS011;1785;47.388;8.538;2023-06-22T01:36:19;13.90;;;8.83;;
3541;SDS011;1785;47.388;8.538;2023-06-22T01:38:47;10.77;;;8.00;;
3541;SDS011;1785;47.388;8.538;2023-06-22T01:41:14;12.50;;;9.07;;
3541;SDS011;1785;47.388;8.538;2023-06-22T01:43:42;12.40;;;8.03;;
3541;SDS011;1785;47.388;8.538;2023-06-22T01:46:11;9.33;;;8.30;;
3541;SDS011;1785;47.388;8.538;2023-06-22T01:48:38;10.63;;;7.70;;
3541;SDS011;1785;47.388;8.538;2023-06-22T01:51:05;12.67;;;8.67;;
3541;SDS011;1785;47.388;8.538;2023-06-22T01:53:31;10.20;;;7.70;;
3541;SDS011;1785;47.388;8.538;2023-06-22T01:55:57;13.80;;;8.20;;
3541;SDS011;1785;47.388;8.538;2023-06-22T01:58:32;11.50;;;7.43;;
3541;SDS011;1785;47.388;8.538;2023-06-22T02:01:06;10.30;;;8.50;;
3541;SDS011;1785;47.388;8.538;2023-06-22T02:04:02;11.03;;;7.83;;
3541;SDS011;1785;47.388;8.538;2023-06-22T02:06:32;10.80;;;7.00;;
3541;SDS011;1785;47.388;8.538;2023-06-22T02:09:06;8.10;;;7.40;;
3541;SDS011;1785;47.388;8.538;2023-06-22T02:11:35;14.20;;;7.70;;
3541;SDS011;1785;47.388;8.538;2023-06-22T02:14:02;10.30;;;8.63;;
3541;SDS011;1785;47.388;8.538;2023-06-22T02:16:31;9.80;;;8.27;;
3541;SDS011;1785;47.388;8.538;2023-06-22T02:18:57;9.70;;;7.60;;
3541;SDS011;1785;47.388;8.538;2023-06-22T02:21:28;12.40;;;8.73;;
3541;SDS011;1785;47.388;8.538;2023-06-22T02:23:55;11.10;;;7.60;;
3541;SDS011;1785;47.388;8.538;2023-06-22T02:26:21;14.87;;;8.90;;
3541;SDS011;1785;47.388;8.538;2023-06-22T02:28:47;8.60;;;7.50;;
3541;SDS011;1785;47.388;8.538;2023-06-22T02:31:14;11.33;;;8.03;;
3541;SDS011;1785;47.388;8.538;2023-06-22T02:33:42;9.77;;;8.40;;
3541;SDS011;1785;47.388;8.538;2023-06-22T02:36:10;11.47;;;7.90;;
3541;SDS011;1785;47.388;8.538;2023-06-22T02:38:38;10.73;;;9.47;;
3541;SDS011;1785;47.388;8.538;2023-06-22T02:41:04;12.73;;;9.17;;
3541;SDS011;1785;47.388;8.538;2023-06-22T02:43:31;11.23;;;7.37;;
3541;SDS011;1785;47.388;8.538;2023-06-22T02:45:57;10.70;;;8.60;;
3541;SDS011;1785;47.388;8.538;2023-06-22T02:48:23;13.60;;;9.63;;
3541;SDS011;1785;47.388;8.538;2023-06-22T02:50:51;13.27;;;8.33;;
3541;SDS011;1785;47.388;8.538;2023-06-22T02:53:17;12.90;;;8.67;;
3541;SDS011;1785;47.388;8.538;2023-06-22T02:55:43;13.87;;;7.87;;
3541;SDS011;1785;47.388;8.538;2023-06-22T02:58:10;13.73;;;8.40;;
3541;SDS011;1785;47.388;8.538;2023-06-22T03:00:36;14.37;;;7.80;;
3541;SDS011;1785;47.388;8.538;2023-06-22T03:03:04;13.57;;;9.13;;
3541;SDS011;1785;47.388;8.538;2023-06-22T03:05:30;11.20;;;8.27;;
3541;SDS011;1785;47.388;8.538;2023-06-22T03:07:58;10.73;;;7.83;;
3541;SDS011;1785;47.388;8.538;2023-06-22T03:10:24;11.90;;;8.00;;
3541;SDS011;1785;47.388;8.538;2023-06-22T03:12:51;10.50;;;9.10;;
3541;SDS011;1785;47.388;8.538;2023-06-22T03:15:17;16.60;;;9.50;;
3541;SDS011;1785;47.388;8.538;2023-06-22T03:17:43;13.93;;;9.00;;
3541;SDS011;1785;47.388;8.538;2023-06-22T03:20:10;12.13;;;8.00;;
3541;SDS011;1785;47.388;8.538;2023-06-22T03:22:37;13.60;;;9.50;;
3541;SDS011;1785;47.388;8.538;2023-06-22T03:25:04;12.17;;;9.23;;
3541;SDS011;1785;47.388;8.538;2023-06-22T03:27:35;13.40;;;9.20;;
3541;SDS011;1785;47.388;8.538;2023-06-22T03:30:01;12.90;;;9.10;;
3541;SDS011;1785;47.388;8.538;2023-06-22T03:32:28;11.07;;;8.37;;
3541;SDS011;1785;47.388;8.538;2023-06-22T03:34:54;14.80;;;9.93;;
3541;SDS011;1785;47.388;8.538;2023-06-22T03:37:23;15.97;;;9.33;;
3541;SDS011;1785;47.388;8.538;2023-06-22T03:39:50;11.40;;;9.43;;
3541;SDS011;1785;47.388;8.538;2023-06-22T03:42:17;10.10;;;8.40;;
3541;SDS011;1785;47.388;8.538;2023-06-22T03:44:43;18.03;;;8.70;;
3541;SDS011;1785;47.388;8.538;2023-06-22T03:47:09;14.87;;;8.97;;
3541;SDS011;1785;47.388;8.538;2023-06-22T03:49:35;14.47;;;8.90;;
3541;SDS011;1785;47.388;8.538;2023-06-22T03:52:02;11.63;;;8.53;;
3541;SDS011;1785;47.388;8.538;2023-06-22T03:54:29;12.23;;;9.53;;
3541;SDS011;1785;47.388;8.538;2023-06-22T03:56:57;12.38;;;10.45;;
3541;SDS011;1785;47.388;8.538;2023-06-22T03:59:24;13.17;;;9.27;;
3541;SDS011;1785;47.388;8.538;2023-06-22T04:01:51;12.57;;;8.70;;
3541;SDS011;1785;47.388;8.538;2023-06-22T04:04:17;23.40;;;10.00;;
3541;SDS011;1785;47.388;8.538;2023-06-22T04:07:00;16.60;;;9.30;;
3541;SDS011;1785;47.388;8.538;2023-06-22T04:09:30;10.37;;;9.23;;
3541;SDS011;1785;47.388;8.538;2023-06-22T04:11:56;18.87;;;9.70;;
3541;SDS011;1785;47.388;8.538;2023-06-22T04:14:22;15.07;;;8.60;;
3541;SDS011;1785;47.388;8.538;2023-06-22T04:16:49;22.37;;;9.47;;
3541;SDS011;1785;47.388;8.538;2023-06-22T04:19:15;12.23;;;9.20;;
3541;SDS011;1785;47.388;8.538;2023-06-22T04:21:42;15.33;;;8.53;;
3541;SDS011;1785;47.388;8.538;2023-06-22T04:24:09;13.57;;;10.00;;
3541;SDS011;1785;47.388;8.538;2023-06-22T04:26:35;12.23;;;10.20;;
3541;SDS011;1785;47.388;8.538;2023-06-22T04:29:02;15.50;;;11.30;;
3541;SDS011;1785;47.388;8.538;2023-06-22T04:31:30;16.07;;;10.40;;
3541;SDS011;1785;47.388;8.538;2023-06-22T04:33:57;16.30;;;9.23;;
3541;SDS011;1785;47.388;8.538;2023-06-22T04:36:31;10.17;;;8.00;;
3541;SDS011;1785;47.388;8.538;2023-06-22T04:39:03;13.60;;;8.83;;
3541;SDS011;1785;47.388;8.538;2023-06-22T04:41:31;13.57;;;10.47;;
3541;SDS011;1785;47.388;8.538;2023-06-22T04:44:11;22.20;;;9.23;;
3541;SDS011;1785;47.388;8.538;2023-06-22T04:46:38;16.73;;;9.00;;
3541;SDS011;1785;47.388;8.538;2023-06-22T04:49:06;12.80;;;9.63;;
3541;SDS011;1785;47.388;8.538;2023-06-22T04:51:34;11.27;;;8.70;;
3541;SDS011;1785;47.388;8.538;2023-06-22T04:54:04;12.93;;;9.83;;
3541;SDS011;1785;47.388;8.538;2023-06-22T04:56:31;17.23;;;8.63;;
3541;SDS011;1785;47.388;8.538;2023-06-22T04:58:58;16.83;;;9.90;;
3541;SDS011;1785;47.388;8.538;2023-06-22T05:01:24;14.50;;;9.53;;
3541;SDS011;1785;47.388;8.538;2023-06-22T05:03:50;13.90;;;9.43;;
3541;SDS011;1785;47.388;8.538;2023-06-22T05:06:24;16.20;;;8.83;;
3541;SDS011;1785;47.388;8.538;2023-06-22T05:08:52;17.13;;;11.13;;
3541;SDS011;1785;47.388;8.538;2023-06-22T05:11:22;11.20;;;8.97;;
3541;SDS011;1785;47.388;8.538;2023-06-22T05:13:48;19.17;;;10.77;;
3541;SDS011;1785;47.388;8.538;2023-06-22T05:16:15;13.10;;;9.87;;
3541;SDS011;1785;47.388;8.538;2023-06-22T05:18:42;15.13;;;10.17;;
3541;SDS011;1785;47.388;8.538;2023-06-22T05:21:09;13.73;;;10.27;;
3541;SDS011;1785;47.388;8.538;2023-06-22T05:23:36;12.80;;;9.93;;
3541;SDS011;1785;47.388;8.538;2023-06-22T05:26:02;16.73;;;9.73;;
3541;SDS011;1785;47.388;8.538;2023-06-22T05:28:28;22.93;;;11.33;;
3541;SDS011;1785;47.388;8.538;2023-06-22T05:30:54;26.23;;;10.00;;
3541;SDS011;1785;47.388;8.538;2023-06-22T05:33:26;14.33;;;10.13;;
3541;SDS011;1785;47.388;8.538;2023-06-22T05:36:17;16.97;;;9.60;;
3541;SDS011;1785;47.388;8.538;2023-06-22T05:39:11;14.57;;;9.98;;
3541;SDS011;1785;47.388;8.538;2023-06-22T05:41:38;15.27;;;10.20;;
3541;SDS011;1785;47.388;8.538;2023-06-22T05:44:04;13.03;;;9.43;;
3541;SDS011;1785;47.388;8.538;2023-06-22T05:46:30;17.13;;;10.90;;
3541;SDS011;1785;47.388;8.538;2023-06-22T05:48:56;13.97;;;10.47;;
3541;SDS011;1785;47.388;8.538;2023-06-22T05:51:23;12.63;;;9.70;;
3541;SDS011;1785;47.388;8.538;2023-06-22T05:53:49;18.20;;;12.67;;
3541;SDS011;1785;47.388;8.538;2023-06-22T05:56:16;15.03;;;9.00;;
3541;SDS011;1785;47.388;8.538;2023-06-22T05:58:42;16.27;;;11.47;;
3541;SDS011;1785;47.388;8.538;2023-06-22T06:01:08;15.80;;;9.30;;
3541;SDS011;1785;47.388;8.538;2023-06-22T06:03:35;13.37;;;10.20;;
3541;SDS011;1785;47.388;8.538;2023-06-22T06:06:06;17.70;;;11.50;;
3541;SDS011;1785;47.388;8.538;2023-06-22T06:08:32;11.67;;;9.30;;
3541;SDS011;1785;47.388;8.538;2023-06-22T06:10:58;15.53;;;9.03;;
3541;SDS011;1785;47.388;8.538;2023-06-22T06:13:27;15.37;;;11.47;;
3541;SDS011;1785;47.388;8.538;2023-06-22T06:15:54;13.33;;;10.00;;
3541;SDS011;1785;47.388;8.538;2023-06-22T06:18:20;16.60;;;9.63;;
3541;SDS011;1785;47.388;8.538;2023-06-22T06:20:46;17.03;;;11.00;;
3541;SDS011;1785;47.388;8.538;2023-06-22T06:23:12;14.20;;;9.70;;
3541;SDS011;1785;47.388;8.538;2023-06-22T06:25:38;20.67;;;10.73;;
3541;SDS011;1785;47.388;8.538;2023-06-22T06:28:04;16.73;;;11.33;;
3541;SDS011;1785;47.388;8.538;2023-06-22T06:30:32;14.10;;;10.05;;
3541;SDS011;1785;47.388;8.538;2023-06-22T06:32:58;21.33;;;10.40;;
3541;SDS011;1785;47.388;8.538;2023-06-22T06:35:25;16.80;;;11.23;;
3541;SDS011;1785;47.388;8.538;2023-06-22T06:37:54;18.83;;;11.10;;
3541;SDS011;1785;47.388;8.538;2023-06-22T06:40:53;17.67;;;11.30;;
3541;SDS011;1785;47.388;8.538;2023-06-22T06:43:20;19.67;;;12.17;;
3541;SDS011;1785;47.388;8.538;2023-06-22T06:45:47;14.63;;;11.40;;
3541;SDS011;1785;47.388;8.538;2023-06-22T06:48:13;21.50;;;12.60;;
3541;SDS011;1785;47.388;8.538;2023-06-22T06:50:39;15.20;;;11.67;;
3541;SDS011;1785;47.388;8.538;2023-06-22T06:53:05;19.77;;;12.10;;
3541;SDS011;1785;47.388;8.538;2023-06-22T06:55:31;18.90;;;11.50;;
3541;SDS011;1785;47.388;8.538;2023-06-22T06:57:58;15.80;;;11.80;;
3541;SDS011;1785;47.388;8.538;2023-06-22T07:00:25;16.90;;;11.03;;
3541;SDS011;1785;47.388;8.538;2023-06-22T07:02:52;12.30;;;9.37;;
3541;SDS011;1785;47.388;8.538;2023-06-22T07:05:18;21.07;;;11.90;;
3541;SDS011;1785;47.388;8.538;2023-06-22T07:07:44;21.23;;;11.60;;
3541;SDS011;1785;47.388;8.538;2023-06-22T07:10:11;16.33;;;10.90;;
3541;SDS011;1785;47.388;8.538;2023-06-22T07:12:37;17.20;;;10.93;;
3541;SDS011;1785;47.388;8.538;2023-06-22T07:17:37;17.80;;;10.33;;
3541;SDS011;1785;47.388;8.538;2023-06-22T07:20:07;16.33;;;11.33;;
3541;SDS011;1785;47.388;8.538;2023-06-22T07:22:37;15.00;;;11.30;;
3541;SDS011;1785;47.388;8.538;2023-06-22T07:25:03;16.07;;;11.47;;
3541;SDS011;1785;47.388;8.538;2023-06-22T07:27:34;12.53;;;8.93;;
3541;SDS011;1785;47.388;8.538;2023-06-22T07:30:03;13.73;;;10.83;;
3541;SDS011;1785;47.388;8.538;2023-06-22T07:32:30;17.17;;;9.90;;
3541;SDS011;1785;47.388;8.538;2023-06-22T07:34:56;17.17;;;9.17;;
3541;SDS011;1785;47.388;8.538;2023-06-22T07:37:23;18.70;;;10.53;;
3541;SDS011;1785;47.388;8.538;2023-06-22T07:39:49;13.90;;;9.83;;
3541;SDS011;1785;47.388;8.538;2023-06-22T07:42:18;18.90;;;10.30;;
3541;SDS011;1785;47.388;8.538;2023-06-22T07:44:44;14.90;;;10.43;;
3541;SDS011;1785;47.388;8.538;2023-06-22T07:47:10;20.33;;;9.83;;
3541;SDS011;1785;47.388;8.538;2023-06-22T07:49:36;14.10;;;10.30;;
3541;SDS011;1785;47.388;8.538;2023-06-22T07:52:03;13.13;;;9.43;;
3541;SDS011;1785;47.388;8.538;2023-06-22T07:54:30;13.17;;;10.43;;
3541;SDS011;1785;47.388;8.538;2023-06-22T07:56:56;15.97;;;9.03;;
3541;SDS011;1785;47.388;8.538;2023-06-22T07:59:22;17.30;;;9.70;;
3541;SDS011;1785;47.388;8.538;2023-06-22T08:01:48;15.45;;;10.65;;
3541;SDS011;1785;47.388;8.538;2023-06-22T08:04:14;15.00;;;9.97;;
3541;SDS011;1785;47.388;8.538;2023-06-22T08:06:41;13.67;;;8.53;;
3541;SDS011;1785;47.388;8.538;2023-06-22T08:09:07;14.57;;;10.40;;
3541;SDS011;1785;47.388;8.538;2023-06-22T08:11:34;12.47;;;9.83;;
3541;SDS011;1785;47.388;8.538;2023-06-22T08:14:00;18.80;;;10.50;;
3541;SDS011;1785;47.388;8.538;2023-06-22T08:16:26;16.33;;;11.47;;
3541;SDS011;1785;47.388;8.538;2023-06-22T08:18:52;16.03;;;10.80;;
3541;SDS011;1785;47.388;8.538;2023-06-22T08:21:18;17.83;;;10.67;;
3541;SDS011;1785;47.388;8.538;2023-06-22T08:23:44;19.27;;;10.53;;
3541;SDS011;1785;47.388;8.538;2023-06-22T08:26:10;15.47;;;10.53;;
3541;SDS011;1785;47.388;8.538;2023-06-22T08:28:37;15.80;;;11.40;;
3541;SDS011;1785;47.388;8.538;2023-06-22T08:31:03;10.87;;;8.77;;
3541;SDS011;1785;47.388;8.538;2023-06-22T08:33:29;16.90;;;9.53;;
3541;SDS011;1785;47.388;8.538;2023-06-22T08:35:56;13.93;;;10.87;;
3541;SDS011;1785;47.388;8.538;2023-06-22T08:38:23;17.27;;;10.63;;
3541;SDS011;1785;47.388;8.538;2023-06-22T08:40:49;13.73;;;9.60;;
3541;SDS011;1785;47.388;8.538;2023-06-22T08:43:15;13.30;;;9.00;;
3541;SDS011;1785;47.388;8.538;2023-06-22T08:45:42;12.67;;;9.50;;
3541;SDS011;1785;47.388;8.538;2023-06-22T08:48:08;16.17;;;8.50;;
3541;SDS011;1785;47.388;8.538;2023-06-22T08:50:34;13.52;;;9.30;;
3541;SDS011;1785;47.388;8.538;2023-06-22T08:53:01;12.53;;;8.43;;
3541;SDS011;1785;47.388;8.538;2023-06-22T08:55:27;10.57;;;9.00;;
3541;SDS011;1785;47.388;8.538;2023-06-22T08:57:53;14.70;;;9.50;;
3541;SDS011;1785;47.388;8.538;2023-06-22T09:00:20;11.40;;;8.40;;
3541;SDS011;1785;47.388;8.538;2023-06-22T09:02:47;16.50;;;10.00;;
3541;SDS011;1785;47.388;8.538;2023-06-22T09:05:14;12.90;;;8.30;;
3541;SDS011;1785;47.388;8.538;2023-06-22T09:07:40;14.10;;;9.07;;
3541;SDS011;1785;47.388;8.538;2023-06-22T09:10:07;13.50;;;7.70;;
3541;SDS011;1785;47.388;8.538;2023-06-22T09:12:33;12.17;;;8.20;;
3541;SDS011;1785;47.388;8.538;2023-06-22T09:15:00;14.83;;;8.33;;
3541;SDS011;1785;47.388;8.538;2023-06-22T09:17:28;12.10;;;8.07;;
3541;SDS011;1785;47.388;8.538;2023-06-22T09:19:55;13.87;;;9.00;;
3541;SDS011;1785;47.388;8.538;2023-06-22T09:22:21;10.43;;;7.80;;
3541;SDS011;1785;47.388;8.538;2023-06-22T09:24:47;12.57;;;7.50;;
3541;SDS011;1785;47.388;8.538;2023-06-22T09:27:13;9.50;;;7.03;;
3541;SDS011;1785;47.388;8.538;2023-06-22T09:29:39;17.40;;;9.07;;
3541;SDS011;1785;47.388;8.538;2023-06-22T09:32:05;10.50;;;8.00;;
3541;SDS011;1785;47.388;8.538;2023-06-22T09:34:32;10.60;;;8.03;;
3541;SDS011;1785;47.388;8.538;2023-06-22T09:36:59;11.83;;;7.53;;
3541;SDS011;1785;47.388;8.538;2023-06-22T09:39:26;13.83;;;8.60;;
3541;SDS011;1785;47.388;8.538;2023-06-22T09:41:52;13.60;;;8.03;;
3541;SDS011;1785;47.388;8.538;2023-06-22T09:44:18;13.40;;;6.90;;
3541;SDS011;1785;47.388;8.538;2023-06-22T09:46:44;12.67;;;7.50;;
3541;SDS011;1785;47.388;8.538;2023-06-22T09:49:10;15.10;;;8.53;;
3541;SDS011;1785;47.388;8.538;2023-06-22T09:51:36;8.90;;;7.17;;
3541;SDS011;1785;47.388;8.538;2023-06-22T09:54:03;10.88;;;7.30;;
3541;SDS011;1785;47.388;8.538;2023-06-22T09:56:29;13.80;;;8.10;;
3541;SDS011;1785;47.388;8.538;2023-06-22T09:58:56;14.00;;;7.77;;
3541;SDS011;1785;47.388;8.538;2023-06-22T10:01:22;11.80;;;8.10;;
3541;SDS011;1785;47.388;8.538;2023-06-22T10:03:49;13.03;;;7.43;;
3541;SDS011;1785;47.388;8.538;2023-06-22T10:06:19;16.07;;;7.87;;
3541;SDS011;1785;47.388;8.538;2023-06-22T10:08:45;16.47;;;8.97;;
3541;SDS011;1785;47.388;8.538;2023-06-22T10:11:13;15.73;;;7.70;;
3541;SDS011;1785;47.388;8.538;2023-06-22T10:13:40;10.20;;;7.70;;
3541;SDS011;1785;47.388;8.538;2023-06-22T10:16:06;9.30;;;7.20;;
3541;SDS011;1785;47.388;8.538;2023-06-22T10:18:32;10.90;;;7.87;;
3541;SDS011;1785;47.388;8.538;2023-06-22T10:20:58;12.73;;;7.00;;
3541;SDS011;1785;47.388;8.538;2023-06-22T10:23:24;9.57;;;7.77;;
3541;SDS011;1785;47.388;8.538;2023-06-22T10:25:50;14.33;;;8.83;;
3541;SDS011;1785;47.388;8.538;2023-06-22T10:28:16;9.85;;;7.68;;
3541;SDS011;1785;47.388;8.538;2023-06-22T10:30:42;19.27;;;9.33;;
3541;SDS011;1785;47.388;8.538;2023-06-22T10:33:09;12.80;;;8.87;;
3541;SDS011;1785;47.388;8.538;2023-06-22T10:35:36;15.67;;;9.60;;
3541;SDS011;1785;47.388;8.538;2023-06-22T10:38:03;10.20;;;8.23;;
3541;SDS011;1785;47.388;8.538;2023-06-22T10:40:30;13.53;;;8.67;;
3541;SDS011;1785;47.388;8.538;2023-06-22T10:42:56;13.57;;;8.60;;
3541;SDS011;1785;47.388;8.538;2023-06-22T10:45:23;12.00;;;8.60;;
3541;SDS011;1785;47.388;8.538;2023-06-22T10:47:49;13.83;;;8.40;;
3541;SDS011;1785;47.388;8.538;2023-06-22T10:50:15;19.13;;;8.97;;
3541;SDS011;1785;47.388;8.538;2023-06-22T10:52:41;16.30;;;8.77;;
3541;SDS011;1785;47.388;8.538;2023-06-22T10:55:07;15.03;;;8.83;;
3541;SDS011;1785;47.388;8.538;2023-06-22T10:57:34;10.47;;;9.37;;
3541;SDS011;1785;47.388;8.538;2023-06-22T11:00:01;20.30;;;9.60;;
3541;SDS011;1785;47.388;8.538;2023-06-22T11:02:31;16.83;;;8.77;;
3541;SDS011;1785;47.388;8.538;2023-06-22T11:04:57;19.40;;;9.13;;
3541;SDS011;1785;47.388;8.538;2023-06-22T11:07:25;9.57;;;7.97;;
3541;SDS011;1785;47.388;8.538;2023-06-22T11:09:52;14.27;;;8.57;;
3541;SDS011;1785;47.388;8.538;2023-06-22T11:12:19;15.40;;;8.80;;
3541;SDS011;1785;47.388;8.538;2023-06-22T11:14:44;10.13;;;8.67;;
3541;SDS011;1785;47.388;8.538;2023-06-22T11:17:11;14.68;;;8.60;;
3541;SDS011;1785;47.388;8.538;2023-06-22T11:19:37;18.70;;;8.60;;
3541;SDS011;1785;47.388;8.538;2023-06-22T11:22:04;16.00;;;9.13;;
3541;SDS011;1785;47.388;8.538;2023-06-22T11:24:30;15.50;;;8.87;;
3541;SDS011;1785;47.388;8.538;2023-06-22T11:26:56;12.87;;;9.00;;
3541;SDS011;1785;47.388;8.538;2023-06-22T11:29:22;10.13;;;8.63;;
3541;SDS011;1785;47.388;8.538;2023-06-22T11:31:49;13.80;;;9.40;;
3541;SDS011;1785;47.388;8.538;2023-06-22T11:34:15;12.80;;;8.63;;
3541;SDS011;1785;47.388;8.538;2023-06-22T11:36:42;10.60;;;7.67;;
3541;SDS011;1785;47.388;8.538;2023-06-22T11:39:09;18.40;;;9.70;;
3541;SDS011;1785;47.388;8.538;2023-06-22T11:41:35;15.47;;;9.47;;
3541;SDS011;1785;47.388;8.538;2023-06-22T11:44:02;11.27;;;8.10;;
3541;SDS011;1785;47.388;8.538;2023-06-22T11:46:29;14.13;;;7.53;;
3541;SDS011;1785;47.388;8.538;2023-06-22T11:48:56;14.17;;;8.93;;
3541;SDS011;1785;47.388;8.538;2023-06-22T11:51:23;19.90;;;9.90;;
3541;SDS011;1785;47.388;8.538;2023-06-22T11:53:49;14.50;;;9.57;;
3541;SDS011;1785;47.388;8.538;2023-06-22T11:56:15;22.80;;;9.10;;
3541;SDS011;1785;47.388;8.538;2023-06-22T11:58:41;11.70;;;9.13;;
3541;SDS011;1785;47.388;8.538;2023-06-22T12:01:07;18.93;;;9.07;;
3541;SDS011;1785;47.388;8.538;2023-06-22T12:03:33;21.57;;;9.33;;
3541;SDS011;1785;47.388;8.538;2023-06-22T12:05:59;10.43;;;8.70;;
3541;SDS011;1785;47.388;8.538;2023-06-22T12:08:26;17.23;;;9.40;;
3541;SDS011;1785;47.388;8.538;2023-06-22T12:10:52;12.90;;;8.80;;
3541;SDS011;1785;47.388;8.538;2023-06-22T12:13:19;12.40;;;8.20;;
3541;SDS011;1785;47.388;8.538;2023-06-22T12:15:45;15.20;;;8.17;;
3541;SDS011;1785;47.388;8.538;2023-06-22T12:18:11;11.30;;;9.23;;
3541;SDS011;1785;47.388;8.538;2023-06-22T12:20:39;13.63;;;7.60;;
3541;SDS011;1785;47.388;8.538;2023-06-22T12:23:05;15.93;;;9.00;;
3541;SDS011;1785;47.388;8.538;2023-06-22T12:25:31;11.03;;;7.33;;
3541;SDS011;1785;47.388;8.538;2023-06-22T12:27:58;18.70;;;8.30;;
3541;SDS011;1785;47.388;8.538;2023-06-22T12:30:24;17.43;;;7.80;;
3541;SDS011;1785;47.388;8.538;2023-06-22T12:32:50;13.17;;;8.20;;
3541;SDS011;1785;47.388;8.538;2023-06-22T12:35:16;13.80;;;7.53;;
3541;SDS011;1785;47.388;8.538;2023-06-22T12:37:42;14.90;;;8.60;;
3541;SDS011;1785;47.388;8.538;2023-06-22T12:40:09;17.33;;;7.60;;
3541;SDS011;1785;47.388;8.538;2023-06-22T12:42:35;12.63;;;8.07;;
3541;SDS011;1785;47.388;8.538;2023-06-22T12:45:03;10.87;;;7.80;;
3541;SDS011;1785;47.388;8.538;2023-06-22T12:47:30;16.40;;;9.20;;
3541;SDS011;1785;47.388;8.538;2023-06-22T12:49:57;14.13;;;7.83;;
3541;SDS011;1785;47.388;8.538;2023-06-22T12:52:23;11.10;;;7.60;;
3541;SDS011;1785;47.388;8.538;2023-06-22T12:54:49;13.63;;;8.23;;
3541;SDS011;1785;47.388;8.538;2023-06-22T12:57:15;12.60;;;7.73;;
3541;SDS011;1785;47.388;8.538;2023-06-22T12:59:42;12.70;;;7.30;;
3541;SDS011;1785;47.388;8.538;2023-06-22T13:02:09;15.90;;;7.40;;
3541;SDS011;1785;47.388;8.538;2023-06-22T13:04:35;16.20;;;7.50;;
3541;SDS011;1785;47.388;8.538;2023-06-22T13:07:01;15.60;;;6.80;;
3541;SDS011;1785;47.388;8.538;2023-06-22T13:09:27;8.67;;;6.00;;
3541;SDS011;1785;47.388;8.538;2023-06-22T13:11:53;13.00;;;7.33;;
3541;SDS011;1785;47.388;8.538;2023-06-22T13:14:19;15.90;;;6.80;;
3541;SDS011;1785;47.388;8.538;2023-06-22T13:16:45;11.67;;;7.20;;
3541;SDS011;1785;47.388;8.538;2023-06-22T13:19:12;15.80;;;6.90;;
3541;SDS011;1785;47.388;8.538;2023-06-22T13:21:38;17.43;;;6.20;;
3541;SDS011;1785;47.388;8.538;2023-06-22T13:24:05;9.43;;;6.30;;
3541;SDS011;1785;47.388;8.538;2023-06-22T13:26:32;10.10;;;5.80;;
3541;SDS011;1785;47.388;8.538;2023-06-22T13:28:58;9.80;;;5.60;;
3541;SDS011;1785;47.388;8.538;2023-06-22T13:31:24;13.67;;;5.60;;
3541;SDS011;1785;47.388;8.538;2023-06-22T13:33:50;11.00;;;5.90;;
3541;SDS011;1785;47.388;8.538;2023-06-22T13:36:18;8.50;;;5.60;;
3541;SDS011;1785;47.388;8.538;2023-06-22T13:38:44;7.20;;;5.17;;
3541;SDS011;1785;47.388;8.538;2023-06-22T13:41:10;13.00;;;5.47;;
3541;SDS011;1785;47.388;8.538;2023-06-22T13:43:36;14.60;;;6.37;;
3541;SDS011;1785;47.388;8.538;2023-06-22T13:46:03;11.20;;;4.60;;
3541;SDS011;1785;47.388;8.538;2023-06-22T13:48:29;11.00;;;5.33;;
3541;SDS011;1785;47.388;8.538;2023-06-22T13:50:55;8.03;;;3.80;;
3541;SDS011;1785;47.388;8.538;2023-06-22T13:53:24;8.20;;;4.07;;
3541;SDS011;1785;47.388;8.538;2023-06-22T13:55:50;6.57;;;4.10;;
3541;SDS011;1785;47.388;8.538;2023-06-22T13:58:16;8.60;;;4.67;;
3541;SDS011;1785;47.388;8.538;2023-06-22T14:00:44;11.77;;;4.67;;
3541;SDS011;1785;47.388;8.538;2023-06-22T14:03:10;7.00;;;4.20;;
3541;SDS011;1785;47.388;8.538;2023-06-22T14:05:36;11.47;;;6.00;;
3541;SDS011;1785;47.388;8.538;2023-06-22T14:08:02;11.00;;;4.87;;
3541;SDS011;1785;47.388;8.538;2023-06-22T14:10:29;11.10;;;3.80;;
3541;SDS011;1785;47.388;8.538;2023-06-22T14:12:55;15.27;;;4.63;;
3541;SDS011;1785;47.388;8.538;2023-06-22T14:15:21;9.60;;;5.03;;
3541;SDS011;1785;47.388;8.538;2023-06-22T14:17:47;17.07;;;5.17;;
3541;SDS011;1785;47.388;8.538;2023-06-22T14:20:13;9.50;;;5.10;;
3541;SDS011;1785;47.388;8.538;2023-06-22T14:22:40;15.53;;;5.03;;
3541;SDS011;1785;47.388;8.538;2023-06-22T14:25:06;12.00;;;6.10;;
3541;SDS011;1785;47.388;8.538;2023-06-22T14:27:33;15.88;;;7.00;;
3541;SDS011;1785;47.388;8.538;2023-06-22T14:29:59;12.70;;;5.40;;
3541;SDS011;1785;47.388;8.538;2023-06-22T14:32:27;11.20;;;6.20;;
3541;SDS011;1785;47.388;8.538;2023-06-22T14:34:55;11.83;;;6.27;;
3541;SDS011;1785;47.388;8.538;2023-06-22T14:37:21;17.00;;;6.10;;
3541;SDS011;1785;47.388;8.538;2023-06-22T14:39:47;12.83;;;6.13;;
3541;SDS011;1785;47.388;8.538;2023-06-22T14:42:13;12.32;;;6.20;;
3541;SDS011;1785;47.388;8.538;2023-06-22T14:44:39;15.23;;;7.30;;
3541;SDS011;1785;47.388;8.538;2023-06-22T14:47:06;9.00;;;6.30;;
3541;SDS011;1785;47.388;8.538;2023-06-22T14:49:33;10.63;;;6.47;;
3541;SDS011;1785;47.388;8.538;2023-06-22T14:52:00;9.40;;;5.80;;
3541;SDS011;1785;47.388;8.538;2023-06-22T14:54:26;13.40;;;6.53;;
3541;SDS011;1785;47.388;8.538;2023-06-22T14:56:52;13.23;;;6.63;;
3541;SDS011;1785;47.388;8.538;2023-06-22T14:59:18;10.90;;;6.70;;
3541;SDS011;1785;47.388;8.538;2023-06-22T15:01:45;10.67;;;7.20;;
3541;SDS011;1785;47.388;8.538;2023-06-22T15:04:11;13.83;;;6.53;;
3541;SDS011;1785;47.388;8.538;2023-06-22T15:06:37;11.87;;;6.97;;